createdAt,value
2018-07-24T00:01:10.330Z,10.43
2018-07-24T00:03:39.656Z,10.57
2018-07-24T00:06:08.859Z,10.70
2018-07-24T00:08:37.979Z,11.47
2018-07-24T00:11:07.744Z,10.60
2018-07-24T00:13:36.972Z,10.10
2018-07-24T00:16:06.163Z,10.23
2018-07-24T00:18:35.438Z,9.77
2018-07-24T00:21:03.515Z,10.17
2018-07-24T00:23:32.833Z,10.77
2018-07-24T00:26:02.091Z,11.33
2018-07-24T00:28:31.242Z,10.57
2018-07-24T00:31:00.622Z,11.10
2018-07-24T00:33:29.823Z,10.37
2018-07-24T00:35:59.028Z,10.70
2018-07-24T00:38:28.310Z,11.00
2018-07-24T00:40:57.428Z,11.27
2018-07-24T00:43:26.694Z,11.27
2018-07-24T00:45:55.841Z,11.20
2018-07-24T00:48:25.052Z,10.77
2018-07-24T00:50:54.342Z,11.77
2018-07-24T00:53:23.598Z,11.18
2018-07-24T00:55:52.801Z,11.20
2018-07-24T00:58:22.039Z,11.37
2018-07-24T01:00:51.315Z,11.90
2018-07-24T01:03:20.568Z,11.37
2018-07-24T01:05:49.844Z,11.50
2018-07-24T01:08:18.995Z,10.47
2018-07-24T01:10:48.370Z,11.33
2018-07-24T01:13:17.575Z,11.67
2018-07-24T01:15:47.529Z,10.80
2018-07-24T01:18:16.883Z,10.80
2018-07-24T01:20:46.192Z,11.47
2018-07-24T01:23:15.480Z,11.60
2018-07-24T01:25:44.708Z,11.07
2018-07-24T01:28:14.014Z,10.93
2018-07-24T01:30:43.274Z,10.67
2018-07-24T01:33:12.501Z,11.87
2018-07-24T01:35:42.323Z,11.70
2018-07-24T01:38:11.334Z,11.43
2018-07-24T01:40:40.479Z,11.57
2018-07-24T01:43:09.675Z,11.77
2018-07-24T01:45:38.875Z,11.10
2018-07-24T01:48:08.025Z,11.53
2018-07-24T01:50:37.169Z,12.10
2018-07-24T01:53:06.142Z,11.50
2018-07-24T01:55:35.363Z,12.27
2018-07-24T01:58:04.526Z,11.63
2018-07-24T02:00:33.655Z,12.10
2018-07-24T02:03:02.948Z,11.97
2018-07-24T02:05:31.958Z,12.13
2018-07-24T02:08:01.040Z,11.67
2018-07-24T02:10:30.159Z,12.30
2018-07-24T02:12:59.389Z,10.97
2018-07-24T02:15:28.510Z,11.03
2018-07-24T02:17:57.814Z,11.67
2018-07-24T02:20:26.894Z,11.50
2018-07-24T02:22:56.076Z,11.80
2018-07-24T02:25:25.348Z,11.30
2018-07-24T02:27:54.558Z,11.93
2018-07-24T02:30:24.035Z,11.27
2018-07-24T02:32:53.327Z,11.50
2018-07-24T02:35:22.449Z,11.47
2018-07-24T02:37:51.534Z,12.13
2018-07-24T02:40:20.659Z,12.47
2018-07-24T02:42:49.871Z,12.10
2018-07-24T02:45:19.083Z,12.30
2018-07-24T02:47:48.372Z,12.63
2018-07-24T02:50:17.536Z,11.13
2018-07-24T02:52:46.590Z,13.03
2018-07-24T02:55:15.939Z,12.03
2018-07-24T02:57:45.384Z,11.97
2018-07-24T03:00:15.139Z,12.33
2018-07-24T03:02:44.532Z,12.63
2018-07-24T03:05:13.545Z,12.23
2018-07-24T03:07:42.800Z,11.50
2018-07-24T03:10:11.951Z,12.23
2018-07-24T03:12:41.124Z,12.67
2018-07-24T03:15:10.381Z,11.80
2018-07-24T03:17:39.369Z,12.23
2018-07-24T03:20:08.625Z,11.97
2018-07-24T03:22:37.737Z,12.13
2018-07-24T03:25:06.947Z,13.20
2018-07-24T03:27:36.064Z,12.07
2018-07-24T03:30:06.381Z,13.30
2018-07-24T03:32:35.650Z,12.27
2018-07-24T03:35:04.935Z,12.73
2018-07-24T03:37:34.063Z,12.63
2018-07-24T03:40:03.261Z,12.17
2018-07-24T03:42:32.459Z,11.83
2018-07-24T03:45:01.712Z,12.40
2018-07-24T03:47:30.806Z,11.90
2018-07-24T03:50:00.007Z,11.97
2018-07-24T03:52:29.160Z,12.07
2018-07-24T03:54:58.332Z,13.33
2018-07-24T03:57:27.549Z,12.57
2018-07-24T03:59:56.685Z,12.47
2018-07-24T04:02:25.861Z,12.03
2018-07-24T04:04:54.957Z,12.13
2018-07-24T04:07:24.088Z,11.77
2018-07-24T04:09:53.194Z,11.77
2018-07-24T04:12:22.330Z,12.27
2018-07-24T04:14:51.597Z,11.90
2018-07-24T04:17:20.505Z,11.70
2018-07-24T04:19:49.678Z,11.43
2018-07-24T04:22:18.908Z,11.23
2018-07-24T04:24:48.156Z,10.23
2018-07-24T04:27:17.426Z,12.33
2018-07-24T04:29:46.668Z,11.90
2018-07-24T04:32:15.998Z,12.33
2018-07-24T04:34:45.198Z,11.90
2018-07-24T04:37:14.191Z,11.73
2018-07-24T04:39:43.717Z,11.87
2018-07-24T04:42:13.138Z,11.07
2018-07-24T04:44:43.162Z,12.23
2018-07-24T04:47:12.363Z,11.07
2018-07-24T04:49:42.515Z,11.75
2018-07-24T04:52:11.939Z,11.83
2018-07-24T04:54:41.088Z,11.43
2018-07-24T04:57:10.299Z,11.80
2018-07-24T04:59:39.539Z,11.77
2018-07-24T05:02:08.686Z,11.00
2018-07-24T05:04:37.794Z,11.43
2018-07-24T05:07:07.202Z,11.77
2018-07-24T05:09:36.293Z,11.13
2018-07-24T05:12:05.421Z,11.63
2018-07-24T05:14:34.595Z,11.40
2018-07-24T05:17:03.767Z,10.93
2018-07-24T05:19:32.993Z,11.50
2018-07-24T05:22:02.171Z,11.23
2018-07-24T05:24:31.311Z,11.03
2018-07-24T05:27:00.587Z,11.53
2018-07-24T05:29:29.711Z,11.33
2018-07-24T05:31:58.944Z,11.40
2018-07-24T05:34:28.048Z,10.93
2018-07-24T05:36:57.219Z,11.97
2018-07-24T05:39:26.347Z,11.53
2018-07-24T05:41:55.494Z,11.53
2018-07-24T05:44:24.768Z,11.70
2018-07-24T05:46:53.980Z,10.90
2018-07-24T05:49:23.094Z,11.60
2018-07-24T05:51:52.249Z,12.10
2018-07-24T05:54:21.346Z,12.33
2018-07-24T05:56:50.586Z,11.93
2018-07-24T05:59:19.797Z,12.27
2018-07-24T06:01:49.007Z,15.37
2018-07-24T06:04:18.123Z,12.87
2018-07-24T06:06:47.231Z,11.57
2018-07-24T06:09:16.484Z,11.83
2018-07-24T06:11:46.212Z,12.47
2018-07-24T06:14:17.161Z,12.90
2018-07-24T06:16:46.363Z,11.83
2018-07-24T06:19:15.583Z,11.97
2018-07-24T06:21:44.716Z,12.90
2018-07-24T06:24:13.902Z,12.67
2018-07-24T06:26:43.112Z,12.13
2018-07-24T06:29:12.157Z,13.37
2018-07-24T06:31:41.319Z,12.97
2018-07-24T06:34:10.577Z,13.10
2018-07-24T06:36:39.704Z,13.73
2018-07-24T06:39:11.368Z,13.00
2018-07-24T06:41:41.041Z,12.73
2018-07-24T06:44:10.909Z,11.10
2018-07-24T06:46:40.152Z,11.93
2018-07-24T06:49:09.706Z,12.13
2018-07-24T06:51:38.943Z,11.17
2018-07-24T06:54:08.008Z,11.23
2018-07-24T06:56:37.248Z,11.57
2018-07-24T06:59:06.625Z,12.10
2018-07-24T07:01:35.872Z,11.07
2018-07-24T07:04:05.132Z,10.77
2018-07-24T07:06:34.251Z,10.87
2018-07-24T07:09:06.034Z,9.80
2018-07-24T07:11:35.628Z,10.50
2018-07-24T07:14:05.858Z,10.45
2018-07-24T07:16:35.342Z,10.37
2018-07-24T07:19:04.694Z,9.97
2018-07-24T07:21:33.943Z,9.73
2018-07-24T07:24:03.190Z,9.70
2018-07-24T07:26:32.349Z,9.33
2018-07-24T07:29:01.581Z,8.43
2018-07-24T07:31:30.840Z,9.90
2018-07-24T07:34:00.104Z,8.27
2018-07-24T07:36:30.352Z,8.50
2018-07-24T07:38:59.489Z,8.13
2018-07-24T07:41:28.757Z,8.60
2018-07-24T07:43:57.867Z,8.60
2018-07-24T07:46:27.110Z,8.53
2018-07-24T07:48:56.341Z,7.73
2018-07-24T07:51:25.765Z,6.30
2018-07-24T07:53:54.876Z,6.97
2018-07-24T07:56:24.164Z,6.75
2018-07-24T07:58:59.931Z,7.87
2018-07-24T08:01:29.149Z,7.73
2018-07-24T08:03:58.299Z,7.40
2018-07-24T08:06:27.552Z,6.10
2018-07-24T08:08:56.652Z,6.90
2018-07-24T08:11:26.846Z,7.07
2018-07-24T08:13:56.127Z,6.43
2018-07-24T08:16:25.249Z,6.00
2018-07-24T08:18:54.376Z,6.40
2018-07-24T08:21:23.663Z,6.63
2018-07-24T08:23:52.827Z,5.83
2018-07-24T08:26:21.979Z,6.00
2018-07-24T08:28:51.150Z,5.70
2018-07-24T08:31:20.386Z,6.10
2018-07-24T08:33:49.719Z,5.77
2018-07-24T08:36:18.918Z,5.50
2018-07-24T08:38:48.559Z,5.50
2018-07-24T08:41:17.877Z,5.60
2018-07-24T08:43:47.275Z,5.60
2018-07-24T08:46:17.527Z,5.30
2018-07-24T08:48:46.760Z,6.27
2018-07-24T08:51:16.235Z,6.27
2018-07-24T08:53:45.703Z,5.47
2018-07-24T08:56:14.782Z,5.20
2018-07-24T08:58:43.994Z,5.60
2018-07-24T09:01:13.168Z,5.63
2018-07-24T09:03:42.475Z,5.77
2018-07-24T09:06:11.679Z,5.47
2018-07-24T09:08:40.950Z,5.03
2018-07-24T09:11:10.150Z,5.30
2018-07-24T09:13:39.125Z,4.70
2018-07-24T09:16:08.287Z,5.73
2018-07-24T09:18:37.421Z,5.43
2018-07-24T09:21:06.548Z,5.37
2018-07-24T09:23:35.715Z,5.47
2018-07-24T09:26:04.913Z,5.30
2018-07-24T09:28:34.108Z,4.63
2018-07-24T09:31:03.438Z,4.63
2018-07-24T09:33:32.595Z,4.47
2018-07-24T09:36:01.869Z,4.80
2018-07-24T09:38:30.995Z,4.40
2018-07-24T09:41:00.094Z,4.70
2018-07-24T09:43:29.397Z,4.60
2018-07-24T09:45:58.570Z,4.97
2018-07-24T09:48:27.622Z,4.40
2018-07-24T09:50:56.790Z,4.93
2018-07-24T09:53:25.956Z,4.63
2018-07-24T09:55:55.191Z,4.47
2018-07-24T09:58:24.409Z,4.27
2018-07-24T10:00:58.763Z,4.57
2018-07-24T10:03:27.968Z,3.80
2018-07-24T10:05:57.163Z,4.17
2018-07-24T10:08:26.343Z,3.93
2018-07-24T10:10:55.486Z,3.97
2018-07-24T10:13:24.771Z,4.13
2018-07-24T10:15:53.965Z,5.30
2018-07-24T10:18:22.986Z,4.53
2018-07-24T10:20:52.110Z,4.03
2018-07-24T10:23:21.405Z,3.90
2018-07-24T10:25:50.628Z,3.20
2018-07-24T10:28:19.778Z,3.80
2018-07-24T10:30:49.024Z,4.07
2018-07-24T10:33:18.194Z,4.13
2018-07-24T10:35:47.450Z,4.37
2018-07-24T10:38:16.822Z,4.33
2018-07-24T10:40:46.114Z,4.30
2018-07-24T10:43:15.343Z,3.90
2018-07-24T10:45:44.837Z,4.30
2018-07-24T10:48:14.206Z,4.10
2018-07-24T10:50:43.448Z,3.90
2018-07-24T10:53:12.671Z,3.90
2018-07-24T10:55:41.947Z,3.87
2018-07-24T10:58:11.209Z,3.70
2018-07-24T11:00:40.445Z,3.70
2018-07-24T11:03:09.562Z,3.80
2018-07-24T11:05:38.798Z,3.63
2018-07-24T11:08:08.055Z,3.83
2018-07-24T11:10:37.284Z,3.53
2018-07-24T11:13:06.402Z,3.73
2018-07-24T11:15:36.216Z,3.90
2018-07-24T11:18:05.493Z,3.77
2018-07-24T11:20:34.655Z,3.83
2018-07-24T11:23:03.840Z,3.67
2018-07-24T11:25:32.898Z,3.70
2018-07-24T11:28:02.050Z,3.80
2018-07-24T11:30:31.293Z,3.97
2018-07-24T11:33:00.955Z,3.77
2018-07-24T11:35:30.047Z,3.50
2018-07-24T11:37:59.092Z,3.60
2018-07-24T11:40:28.314Z,3.57
2018-07-24T11:42:57.512Z,3.80
2018-07-24T11:45:26.640Z,4.00
2018-07-24T11:47:55.925Z,3.40
2018-07-24T11:50:25.063Z,3.70
2018-07-24T11:52:54.284Z,3.57
2018-07-24T11:55:23.420Z,3.37
2018-07-24T11:57:52.582Z,3.60
2018-07-24T12:00:22.022Z,3.90
2018-07-24T12:02:51.300Z,3.20
2018-07-24T12:05:20.525Z,3.70
2018-07-24T12:07:49.815Z,3.63
2018-07-24T12:10:18.926Z,3.80
2018-07-24T12:12:49.190Z,3.47
2018-07-24T12:15:18.402Z,3.30
2018-07-24T12:17:47.616Z,3.20
2018-07-24T12:20:16.946Z,3.53
2018-07-24T12:22:46.209Z,3.47
2018-07-24T12:25:15.364Z,3.53
2018-07-24T12:27:44.584Z,3.30
2018-07-24T12:30:14.674Z,3.37
2018-07-24T12:32:43.658Z,3.47
2018-07-24T12:35:12.786Z,3.50
2018-07-24T12:37:41.883Z,3.30
2018-07-24T12:40:11.095Z,3.50
2018-07-24T12:42:40.284Z,3.70
2018-07-24T12:45:09.382Z,3.03
2018-07-24T12:47:38.518Z,3.43
2018-07-24T12:50:07.981Z,3.17
2018-07-24T12:52:37.170Z,3.50
2018-07-24T12:55:06.332Z,3.50
2018-07-24T12:57:42.132Z,3.70
2018-07-24T13:00:12.998Z,3.50
2018-07-24T13:02:42.236Z,3.80
2018-07-24T13:05:11.343Z,4.63
2018-07-24T13:07:40.526Z,3.80
2018-07-24T13:10:12.855Z,3.80
2018-07-24T13:12:41.938Z,3.33
2018-07-24T13:15:11.112Z,3.37
2018-07-24T13:17:40.252Z,3.47
2018-07-24T13:20:09.459Z,3.20
2018-07-24T13:22:38.623Z,3.50
2018-07-24T13:25:07.824Z,3.90
2018-07-24T13:27:38.464Z,3.47
2018-07-24T13:30:07.588Z,3.93
2018-07-24T13:32:37.387Z,3.57
2018-07-24T13:35:06.800Z,3.93
2018-07-24T13:37:35.944Z,3.50
2018-07-24T13:40:05.573Z,3.63
2018-07-24T13:42:34.798Z,4.13
2018-07-24T13:45:04.193Z,3.77
2018-07-24T13:47:33.471Z,3.60
2018-07-24T13:50:02.659Z,4.00
2018-07-24T13:52:31.904Z,4.13
2018-07-24T13:55:01.199Z,3.85
2018-07-24T13:57:30.360Z,3.40
2018-07-24T13:59:59.582Z,4.20
2018-07-24T14:02:28.723Z,3.40
2018-07-24T14:04:57.652Z,3.80
2018-07-24T14:07:26.780Z,3.77
2018-07-24T14:09:55.999Z,3.80
2018-07-24T14:12:25.496Z,4.00
2018-07-24T14:14:54.628Z,3.80
2018-07-24T14:17:23.922Z,3.80
2018-07-24T14:19:53.064Z,3.80
2018-07-24T14:22:22.343Z,3.83
2018-07-24T14:24:51.525Z,4.00
2018-07-24T14:27:20.713Z,3.43
2018-07-24T14:29:49.983Z,4.20
2018-07-24T14:32:19.391Z,3.67
2018-07-24T14:34:48.599Z,3.80
2018-07-24T14:37:18.947Z,4.43
2018-07-24T14:39:48.171Z,4.20
2018-07-24T14:42:17.616Z,3.92
2018-07-24T14:44:46.874Z,3.93
2018-07-24T14:47:16.184Z,3.90
2018-07-24T14:49:45.436Z,3.57
2018-07-24T14:52:14.897Z,3.87
2018-07-24T14:54:44.275Z,3.87
2018-07-24T14:57:13.528Z,4.20
2018-07-24T14:59:42.747Z,3.97
2018-07-24T15:02:12.070Z,4.10
2018-07-24T15:04:41.269Z,3.50
2018-07-24T15:07:10.388Z,3.80
2018-07-24T15:09:39.555Z,3.97
2018-07-24T15:12:08.691Z,4.20
2018-07-24T15:14:37.989Z,4.53
2018-07-24T15:17:07.180Z,3.70
2018-07-24T15:19:36.261Z,3.47
2018-07-24T15:22:05.401Z,4.13
2018-07-24T15:24:34.665Z,4.17
2018-07-24T15:27:03.773Z,4.10
2018-07-24T15:29:33.011Z,4.10
2018-07-24T15:32:02.248Z,4.10
2018-07-24T15:34:31.683Z,4.40
2018-07-24T15:37:00.778Z,4.17
2018-07-24T15:39:29.894Z,4.00
2018-07-24T15:42:00.050Z,4.03
2018-07-24T15:44:29.375Z,3.83
2018-07-24T15:46:58.582Z,4.10
2018-07-24T15:49:27.923Z,6.03
2018-07-24T15:51:57.093Z,4.27
2018-07-24T15:54:26.392Z,4.13
2018-07-24T15:56:55.521Z,4.37
2018-07-24T15:59:24.787Z,3.80
2018-07-24T16:01:54.012Z,3.93
2018-07-24T16:04:23.210Z,4.10
2018-07-24T16:06:52.378Z,4.93
2018-07-24T16:09:21.634Z,5.20
2018-07-24T16:11:50.811Z,4.63
2018-07-24T16:14:20.058Z,4.40
2018-07-24T16:16:49.269Z,3.93
2018-07-24T16:19:18.453Z,4.23
2018-07-24T16:21:47.746Z,4.07
2018-07-24T16:24:17.079Z,3.97
2018-07-24T16:26:46.389Z,4.47
2018-07-24T16:29:15.939Z,4.43
2018-07-24T16:31:45.365Z,4.47
2018-07-24T16:34:14.794Z,4.53
2018-07-24T16:36:44.099Z,4.50
2018-07-24T16:39:13.411Z,4.37
2018-07-24T16:41:42.807Z,4.90
2018-07-24T16:44:12.000Z,4.50
2018-07-24T16:46:41.179Z,4.70
2018-07-24T16:49:10.396Z,4.17
2018-07-24T16:51:39.578Z,4.77
2018-07-24T16:54:08.711Z,4.73
2018-07-24T16:56:37.919Z,7.17
2018-07-24T16:59:07.307Z,4.97
2018-07-24T17:01:36.242Z,4.27
2018-07-24T17:04:05.465Z,4.43
2018-07-24T17:06:34.572Z,4.80
2018-07-24T17:09:05.220Z,4.50
2018-07-24T17:11:34.497Z,4.37
2018-07-24T17:14:03.729Z,4.50
2018-07-24T17:16:33.125Z,4.63
2018-07-24T17:19:02.323Z,4.67
2018-07-24T17:21:31.274Z,5.50
2018-07-24T17:24:00.658Z,4.97
2018-07-24T17:26:30.626Z,4.40
2018-07-24T17:28:59.646Z,6.10
2018-07-24T17:31:28.890Z,5.10
2018-07-24T17:33:58.038Z,4.80
2018-07-24T17:36:27.267Z,5.07
2018-07-24T17:38:56.639Z,5.60
2018-07-24T17:41:25.843Z,4.47
2018-07-24T17:43:55.055Z,5.20
2018-07-24T17:46:24.285Z,5.00
2018-07-24T17:48:53.471Z,4.90
2018-07-24T17:51:22.718Z,4.53
2018-07-24T17:53:51.848Z,5.00
2018-07-24T17:56:22.326Z,4.60
2018-07-24T17:58:51.781Z,4.40
2018-07-24T18:01:21.009Z,4.57
2018-07-24T18:03:50.407Z,4.70
2018-07-24T18:06:19.475Z,4.63
2018-07-24T18:08:48.998Z,4.50
2018-07-24T18:11:18.408Z,5.00
2018-07-24T18:13:47.623Z,5.03
2018-07-24T18:16:17.318Z,4.33
2018-07-24T18:18:46.713Z,4.80
2018-07-24T18:21:16.269Z,4.70
2018-07-24T18:23:45.242Z,4.53
2018-07-24T18:26:15.134Z,4.70
2018-07-24T18:28:44.477Z,6.40
2018-07-24T18:31:14.058Z,5.10
2018-07-24T18:33:44.663Z,5.70
2018-07-24T18:36:14.013Z,6.10
2018-07-24T18:38:43.338Z,4.97
2018-07-24T18:41:12.395Z,4.63
2018-07-24T18:43:41.593Z,4.90
2018-07-24T18:46:10.769Z,4.40
2018-07-24T18:48:39.931Z,4.80
2018-07-24T18:51:09.331Z,4.83
2018-07-24T18:53:38.487Z,5.30
2018-07-24T18:56:07.789Z,5.07
2018-07-24T18:58:36.978Z,6.10
2018-07-24T19:01:06.272Z,4.63
2018-07-24T19:03:35.704Z,5.00
2018-07-24T19:06:04.896Z,4.70
2018-07-24T19:08:34.071Z,5.30
2018-07-24T19:11:04.470Z,4.83
2018-07-24T19:13:33.774Z,6.30
2018-07-24T19:16:03.781Z,5.47
2018-07-24T19:18:32.925Z,5.53
2018-07-24T19:21:02.434Z,5.10
2018-07-24T19:23:31.647Z,5.03
2018-07-24T19:26:00.940Z,5.40
2018-07-24T19:28:30.215Z,4.87
2018-07-24T19:30:59.433Z,5.50
2018-07-24T19:33:29.209Z,5.60
2018-07-24T19:35:58.529Z,5.60
2018-07-24T19:38:27.736Z,5.50
2018-07-24T19:40:56.978Z,5.47
2018-07-24T19:43:26.367Z,5.53
2018-07-24T19:45:55.557Z,5.60
2018-07-24T19:48:24.754Z,5.10
2018-07-24T19:50:53.985Z,5.27
2018-07-24T19:53:23.318Z,5.50
2018-07-24T19:55:52.583Z,6.00
2018-07-24T19:58:21.698Z,5.60
2018-07-24T20:00:50.986Z,8.20
2018-07-24T20:03:21.004Z,6.80
2018-07-24T20:05:50.290Z,7.03
2018-07-24T20:08:19.543Z,7.57
2018-07-24T20:10:48.950Z,5.70
2018-07-24T20:13:18.590Z,7.37
2018-07-24T20:15:48.172Z,6.83
2018-07-24T20:18:18.052Z,6.30
2018-07-24T20:20:47.303Z,5.80
2018-07-24T20:23:16.447Z,6.57
2018-07-24T20:25:45.636Z,5.77
2018-07-24T20:28:14.796Z,7.37
2018-07-24T20:30:44.798Z,7.15
2018-07-24T20:33:14.973Z,6.03
2018-07-24T20:35:44.511Z,6.37
2018-07-24T20:38:13.847Z,6.83
2018-07-24T20:40:43.261Z,6.77
2018-07-24T20:43:12.549Z,6.40
2018-07-24T20:45:41.846Z,6.57
2018-07-24T20:48:11.010Z,6.27
2018-07-24T20:50:40.381Z,6.27
2018-07-24T20:53:09.730Z,6.57
2018-07-24T20:55:38.882Z,6.62
2018-07-24T20:58:08.318Z,7.07
2018-07-24T21:00:37.603Z,7.30
2018-07-24T21:03:06.827Z,7.17
2018-07-24T21:05:36.023Z,6.50
2018-07-24T21:08:05.206Z,6.10
2018-07-24T21:10:34.599Z,6.57
2018-07-24T21:13:03.810Z,6.67
2018-07-24T21:15:33.694Z,6.63
2018-07-24T21:18:02.940Z,6.90
2018-07-24T21:20:32.299Z,6.37
2018-07-24T21:23:01.816Z,6.40
2018-07-24T21:25:31.175Z,6.70
2018-07-24T21:28:00.345Z,7.03
2018-07-24T21:30:29.552Z,6.57
2018-07-24T21:32:58.579Z,6.73
2018-07-24T21:35:27.885Z,6.50
2018-07-24T21:37:57.065Z,6.60
2018-07-24T21:40:26.240Z,6.73
2018-07-24T21:42:55.814Z,7.03
2018-07-24T21:45:24.771Z,6.50
2018-07-24T21:47:54.044Z,7.03
2018-07-24T21:50:23.014Z,6.90
2018-07-24T21:52:52.978Z,6.70
2018-07-24T21:55:22.306Z,7.50
2018-07-24T21:57:51.727Z,7.00
2018-07-24T22:00:21.667Z,7.40
2018-07-24T22:02:50.957Z,7.40
2018-07-24T22:05:20.299Z,7.20
2018-07-24T22:07:49.746Z,7.17
2018-07-24T22:10:22.650Z,8.13
2018-07-24T22:12:53.219Z,7.43
2018-07-24T22:15:27.052Z,7.77
2018-07-24T22:17:56.877Z,6.87
2018-07-24T22:20:26.045Z,7.70
